sensor_id;sensor_type;location;lat;lon;timestamp;P1;durP1;ratioP1;P2;durP2;ratioP2
43694;SDS011;29300;43.560;1.294;2022-11-20T00:01:11;4.20;;;2.03;;
43694;SDS011;29300;43.560;1.294;2022-11-20T00:03:39;3.50;;;1.70;;
43694;SDS011;29300;43.560;1.294;2022-11-20T00:06:06;3.55;;;2.20;;
43694;SDS011;29300;43.560;1.294;2022-11-20T00:08:33;3.47;;;2.05;;
43694;SDS011;29300;43.560;1.294;2022-11-20T00:11:06;3.97;;;1.90;;
43694;SDS011;29300;43.560;1.294;2022-11-20T00:13:47;1.98;;;1.63;;
43694;SDS011;29300;43.560;1.294;2022-11-20T00:16:15;2.13;;;1.70;;
43694;SDS011;29300;43.560;1.294;2022-11-20T00:18:43;2.42;;;1.73;;
43694;SDS011;29300;43.560;1.294;2022-11-20T00:21:16;2.53;;;1.55;;
43694;SDS011;29300;43.560;1.294;2022-11-20T00:23:44;1.88;;;1.60;;
43694;SDS011;29300;43.560;1.294;2022-11-20T00:26:11;1.63;;;1.52;;
43694;SDS011;29300;43.560;1.294;2022-11-20T00:28:38;3.20;;;1.65;;
43694;SDS011;29300;43.560;1.294;2022-11-20T00:31:11;2.72;;;1.52;;
43694;SDS011;29300;43.560;1.294;2022-11-20T00:33:38;2.40;;;1.92;;
43694;SDS011;29300;43.560;1.294;2022-11-20T00:36:06;2.25;;;1.73;;
43694;SDS011;29300;43.560;1.294;2022-11-20T00:38:34;2.35;;;1.75;;
43694;SDS011;29300;43.560;1.294;2022-11-20T00:41:01;4.80;;;1.52;;
43694;SDS011;29300;43.560;1.294;2022-11-20T00:43:30;2.28;;;1.67;;
43694;SDS011;29300;43.560;1.294;2022-11-20T00:46:08;2.70;;;1.73;;
43694;SDS011;29300;43.560;1.294;2022-11-20T00:48:45;2.28;;;1.52;;
43694;SDS011;29300;43.560;1.294;2022-11-20T00:51:11;1.52;;;1.25;;
43694;SDS011;29300;43.560;1.294;2022-11-20T00:53:38;1.88;;;1.45;;
43694;SDS011;29300;43.560;1.294;2022-11-20T00:56:05;1.95;;;1.58;;
43694;SDS011;29300;43.560;1.294;2022-11-20T00:58:34;1.98;;;1.60;;
43694;SDS011;29300;43.560;1.294;2022-11-20T01:01:06;2.08;;;1.52;;
43694;SDS011;29300;43.560;1.294;2022-11-20T01:03:33;2.20;;;1.85;;
43694;SDS011;29300;43.560;1.294;2022-11-20T01:06:01;3.92;;;2.17;;
43694;SDS011;29300;43.560;1.294;2022-11-20T01:08:32;3.25;;;1.90;;
43694;SDS011;29300;43.560;1.294;2022-11-20T01:11:02;4.18;;;2.47;;
43694;SDS011;29300;43.560;1.294;2022-11-20T01:13:39;3.67;;;1.92;;
43694;SDS011;29300;43.560;1.294;2022-11-20T01:16:10;3.45;;;1.90;;
43694;SDS011;29300;43.560;1.294;2022-11-20T01:18:38;2.47;;;1.65;;
43694;SDS011;29300;43.560;1.294;2022-11-20T01:21:12;2.47;;;1.60;;
43694;SDS011;29300;43.560;1.294;2022-11-20T01:23:40;3.33;;;1.98;;
43694;SDS011;29300;43.560;1.294;2022-11-20T01:26:08;1.98;;;1.42;;
43694;SDS011;29300;43.560;1.294;2022-11-20T01:28:36;2.83;;;1.58;;
43694;SDS011;29300;43.560;1.294;2022-11-20T01:31:10;2.65;;;1.70;;
43694;SDS011;29300;43.560;1.294;2022-11-20T01:33:47;3.58;;;1.60;;
43694;SDS011;29300;43.560;1.294;2022-11-20T01:36:15;2.13;;;1.58;;
43694;SDS011;29300;43.560;1.294;2022-11-20T01:38:42;2.28;;;1.38;;
43694;SDS011;29300;43.560;1.294;2022-11-20T01:41:09;3.22;;;1.65;;
43694;SDS011;29300;43.560;1.294;2022-11-20T01:43:35;1.88;;;1.20;;
43694;SDS011;29300;43.560;1.294;2022-11-20T01:46:15;2.10;;;1.20;;
43694;SDS011;29300;43.560;1.294;2022-11-20T01:53:52;1.35;;;1.08;;
43694;SDS011;29300;43.560;1.294;2022-11-20T01:56:20;1.15;;;0.85;;
43694;SDS011;29300;43.560;1.294;2022-11-20T01:58:50;2.17;;;1.15;;
43694;SDS011;29300;43.560;1.294;2022-11-20T02:01:20;1.05;;;0.82;;
43694;SDS011;29300;43.560;1.294;2022-11-20T02:03:46;1.67;;;0.90;;
43694;SDS011;29300;43.560;1.294;2022-11-20T02:08:47;1.50;;;1.10;;
43694;SDS011;29300;43.560;1.294;2022-11-20T02:11:13;1.25;;;1.10;;
43694;SDS011;29300;43.560;1.294;2022-11-20T02:13:39;1.58;;;1.13;;
43694;SDS011;29300;43.560;1.294;2022-11-20T02:18:40;0.93;;;0.93;;
43694;SDS011;29300;43.560;1.294;2022-11-20T02:21:09;2.03;;;1.00;;
43694;SDS011;29300;43.560;1.294;2022-11-20T02:23:50;1.45;;;0.93;;
43694;SDS011;29300;43.560;1.294;2022-11-20T02:26:35;1.20;;;1.10;;
43694;SDS011;29300;43.560;1.294;2022-11-20T02:29:13;4.07;;;1.20;;
43694;SDS011;29300;43.560;1.294;2022-11-20T02:31:42;1.83;;;1.02;;
43694;SDS011;29300;43.560;1.294;2022-11-20T02:34:09;1.08;;;0.98;;
43694;SDS011;29300;43.560;1.294;2022-11-20T02:36:35;1.10;;;0.93;;
43694;SDS011;29300;43.560;1.294;2022-11-20T02:39:03;0.70;;;0.70;;
43694;SDS011;29300;43.560;1.294;2022-11-20T02:41:30;1.10;;;0.77;;
43694;SDS011;29300;43.560;1.294;2022-11-20T02:44:00;2.13;;;1.08;;
43694;SDS011;29300;43.560;1.294;2022-11-20T02:46:26;2.47;;;0.80;;
43694;SDS011;29300;43.560;1.294;2022-11-20T02:48:52;0.98;;;0.73;;
43694;SDS011;29300;43.560;1.294;2022-11-20T02:51:17;2.90;;;1.23;;
43694;SDS011;29300;43.560;1.294;2022-11-20T02:53:43;2.28;;;1.08;;
43694;SDS011;29300;43.560;1.294;2022-11-20T02:56:09;1.35;;;1.10;;
43694;SDS011;29300;43.560;1.294;2022-11-20T02:58:35;1.35;;;1.15;;
43694;SDS011;29300;43.560;1.294;2022-11-20T03:01:00;1.10;;;1.00;;
43694;SDS011;29300;43.560;1.294;2022-11-20T03:03:26;1.40;;;1.10;;
43694;SDS011;29300;43.560;1.294;2022-11-20T03:05:52;1.92;;;1.20;;
43694;SDS011;29300;43.560;1.294;2022-11-20T03:08:17;2.80;;;1.35;;
43694;SDS011;29300;43.560;1.294;2022-11-20T03:10:43;2.17;;;1.25;;
43694;SDS011;29300;43.560;1.294;2022-11-20T03:13:09;1.00;;;0.90;;
43694;SDS011;29300;43.560;1.294;2022-11-20T03:15:35;1.42;;;1.00;;
43694;SDS011;29300;43.560;1.294;2022-11-20T03:18:02;1.70;;;0.90;;
43694;SDS011;29300;43.560;1.294;2022-11-20T03:20:28;0.82;;;0.82;;
43694;SDS011;29300;43.560;1.294;2022-11-20T03:22:54;1.17;;;1.00;;
43694;SDS011;29300;43.560;1.294;2022-11-20T03:25:20;1.15;;;1.05;;
43694;SDS011;29300;43.560;1.294;2022-11-20T03:27:46;0.90;;;0.90;;
43694;SDS011;29300;43.560;1.294;2022-11-20T03:30:12;1.00;;;0.90;;
43694;SDS011;29300;43.560;1.294;2022-11-20T03:32:38;1.15;;;0.82;;
43694;SDS011;29300;43.560;1.294;2022-11-20T03:35:03;0.95;;;0.80;;
43694;SDS011;29300;43.560;1.294;2022-11-20T03:37:29;1.30;;;1.20;;
43694;SDS011;29300;43.560;1.294;2022-11-20T03:39:55;0.93;;;0.82;;
43694;SDS011;29300;43.560;1.294;2022-11-20T03:42:21;0.80;;;0.80;;
43694;SDS011;29300;43.560;1.294;2022-11-20T03:45:05;1.00;;;0.90;;
43694;SDS011;29300;43.560;1.294;2022-11-20T03:47:31;1.25;;;1.15;;
43694;SDS011;29300;43.560;1.294;2022-11-20T03:49:56;1.23;;;1.00;;
43694;SDS011;29300;43.560;1.294;2022-11-20T03:52:22;1.67;;;1.10;;
43694;SDS011;29300;43.560;1.294;2022-11-20T03:54:48;1.27;;;1.00;;
43694;SDS011;29300;43.560;1.294;2022-11-20T03:57:13;0.85;;;0.85;;
43694;SDS011;29300;43.560;1.294;2022-11-20T03:59:39;1.67;;;1.00;;
43694;SDS011;29300;43.560;1.294;2022-11-20T04:02:05;1.10;;;1.00;;
43694;SDS011;29300;43.560;1.294;2022-11-20T04:04:30;1.25;;;1.00;;
43694;SDS011;29300;43.560;1.294;2022-11-20T04:06:56;1.30;;;1.13;;
43694;SDS011;29300;43.560;1.294;2022-11-20T04:09:22;1.50;;;1.23;;
43694;SDS011;29300;43.560;1.294;2022-11-20T04:11:47;1.23;;;0.90;;
43694;SDS011;29300;43.560;1.294;2022-11-20T04:14:14;1.17;;;1.08;;
43694;SDS011;29300;43.560;1.294;2022-11-20T04:16:40;1.38;;;1.13;;
43694;SDS011;29300;43.560;1.294;2022-11-20T04:19:08;1.52;;;1.05;;
43694;SDS011;29300;43.560;1.294;2022-11-20T04:21:36;1.48;;;0.98;;
43694;SDS011;29300;43.560;1.294;2022-11-20T04:24:02;1.15;;;1.00;;
43694;SDS011;29300;43.560;1.294;2022-11-20T04:26:29;1.40;;;1.10;;
43694;SDS011;29300;43.560;1.294;2022-11-20T04:28:55;1.73;;;1.20;;
43694;SDS011;29300;43.560;1.294;2022-11-20T04:31:22;1.30;;;1.20;;
43694;SDS011;29300;43.560;1.294;2022-11-20T04:33:52;1.42;;;1.33;;
43694;SDS011;29300;43.560;1.294;2022-11-20T04:36:19;1.15;;;1.05;;
43694;SDS011;29300;43.560;1.294;2022-11-20T04:38:55;1.67;;;1.40;;
43694;SDS011;29300;43.560;1.294;2022-11-20T04:41:30;1.25;;;1.15;;
43694;SDS011;29300;43.560;1.294;2022-11-20T04:46:39;1.73;;;1.55;;
43694;SDS011;29300;43.560;1.294;2022-11-20T04:49:06;2.05;;;1.40;;
43694;SDS011;29300;43.560;1.294;2022-11-20T04:51:32;1.80;;;1.40;;
43694;SDS011;29300;43.560;1.294;2022-11-20T04:53:59;1.80;;;1.40;;
43694;SDS011;29300;43.560;1.294;2022-11-20T04:56:25;2.58;;;1.63;;
43694;SDS011;29300;43.560;1.294;2022-11-20T04:58:51;1.40;;;1.30;;
43694;SDS011;29300;43.560;1.294;2022-11-20T05:01:20;2.15;;;1.88;;
43694;SDS011;29300;43.560;1.294;2022-11-20T05:03:47;2.83;;;1.70;;
43694;SDS011;29300;43.560;1.294;2022-11-20T05:06:14;2.25;;;1.48;;
43694;SDS011;29300;43.560;1.294;2022-11-20T05:08:43;1.60;;;1.10;;
43694;SDS011;29300;43.560;1.294;2022-11-20T05:11:10;2.08;;;1.50;;
43694;SDS011;29300;43.560;1.294;2022-11-20T05:13:37;1.92;;;1.38;;
43694;SDS011;29300;43.560;1.294;2022-11-20T05:16:04;1.33;;;1.10;;
43694;SDS011;29300;43.560;1.294;2022-11-20T05:18:38;1.40;;;1.30;;
43694;SDS011;29300;43.560;1.294;2022-11-20T05:21:05;2.42;;;1.70;;
43694;SDS011;29300;43.560;1.294;2022-11-20T05:23:31;1.45;;;1.30;;
43694;SDS011;29300;43.560;1.294;2022-11-20T05:25:57;1.88;;;1.23;;
43694;SDS011;29300;43.560;1.294;2022-11-20T05:28:24;1.38;;;1.17;;
43694;SDS011;29300;43.560;1.294;2022-11-20T05:30:50;1.38;;;1.27;;
43694;SDS011;29300;43.560;1.294;2022-11-20T05:33:16;2.55;;;1.20;;
43694;SDS011;29300;43.560;1.294;2022-11-20T05:35:43;1.45;;;1.20;;
43694;SDS011;29300;43.560;1.294;2022-11-20T05:38:08;1.85;;;1.25;;
43694;SDS011;29300;43.560;1.294;2022-11-20T05:40:34;1.30;;;1.05;;
43694;SDS011;29300;43.560;1.294;2022-11-20T05:43:00;2.20;;;1.35;;
43694;SDS011;29300;43.560;1.294;2022-11-20T05:45:26;2.72;;;1.40;;
43694;SDS011;29300;43.560;1.294;2022-11-20T05:47:52;4.22;;;1.48;;
43694;SDS011;29300;43.560;1.294;2022-11-20T05:50:17;1.30;;;1.20;;
43694;SDS011;29300;43.560;1.294;2022-11-20T05:52:43;1.75;;;1.33;;
43694;SDS011;29300;43.560;1.294;2022-11-20T05:55:09;1.10;;;1.00;;
43694;SDS011;29300;43.560;1.294;2022-11-20T05:57:34;0.98;;;0.93;;
43694;SDS011;29300;43.560;1.294;2022-11-20T06:00:00;0.82;;;0.82;;
43694;SDS011;29300;43.560;1.294;2022-11-20T06:02:27;1.13;;;1.00;;
43694;SDS011;29300;43.560;1.294;2022-11-20T06:04:53;1.20;;;1.10;;
43694;SDS011;29300;43.560;1.294;2022-11-20T06:07:18;1.50;;;1.05;;
43694;SDS011;29300;43.560;1.294;2022-11-20T06:09:44;1.48;;;1.35;;
43694;SDS011;29300;43.560;1.294;2022-11-20T06:12:10;1.85;;;1.10;;
43694;SDS011;29300;43.560;1.294;2022-11-20T06:14:35;1.10;;;1.00;;
43694;SDS011;29300;43.560;1.294;2022-11-20T06:17:01;1.15;;;0.90;;
43694;SDS011;29300;43.560;1.294;2022-11-20T06:19:26;1.00;;;0.90;;
43694;SDS011;29300;43.560;1.294;2022-11-20T06:21:52;1.33;;;1.13;;
43694;SDS011;29300;43.560;1.294;2022-11-20T06:24:18;0.80;;;0.80;;
43694;SDS011;29300;43.560;1.294;2022-11-20T06:26:44;0.93;;;0.80;;
43694;SDS011;29300;43.560;1.294;2022-11-20T06:29:09;0.80;;;0.80;;
43694;SDS011;29300;43.560;1.294;2022-11-20T06:31:35;0.80;;;0.80;;
43694;SDS011;29300;43.560;1.294;2022-11-20T06:34:03;0.77;;;0.77;;
43694;SDS011;29300;43.560;1.294;2022-11-20T06:36:30;1.17;;;0.90;;
43694;SDS011;29300;43.560;1.294;2022-11-20T06:38:56;0.90;;;0.90;;
43694;SDS011;29300;43.560;1.294;2022-11-20T06:41:22;1.08;;;0.88;;
43694;SDS011;29300;43.560;1.294;2022-11-20T06:43:48;0.90;;;0.90;;
43694;SDS011;29300;43.560;1.294;2022-11-20T06:46:14;1.02;;;0.95;;
43694;SDS011;29300;43.560;1.294;2022-11-20T06:48:44;0.95;;;0.93;;
43694;SDS011;29300;43.560;1.294;2022-11-20T06:51:10;0.88;;;0.88;;
43694;SDS011;29300;43.560;1.294;2022-11-20T06:53:36;1.00;;;0.73;;
43694;SDS011;29300;43.560;1.294;2022-11-20T06:56:02;1.05;;;1.00;;
43694;SDS011;29300;43.560;1.294;2022-11-20T06:58:30;1.40;;;1.25;;
43694;SDS011;29300;43.560;1.294;2022-11-20T07:01:00;1.58;;;1.20;;
43694;SDS011;29300;43.560;1.294;2022-11-20T07:03:27;1.63;;;1.08;;
43694;SDS011;29300;43.560;1.294;2022-11-20T07:05:56;1.33;;;1.17;;
43694;SDS011;29300;43.560;1.294;2022-11-20T07:08:23;1.20;;;1.02;;
43694;SDS011;29300;43.560;1.294;2022-11-20T07:10:49;1.40;;;1.30;;
43694;SDS011;29300;43.560;1.294;2022-11-20T07:13:15;1.90;;;1.35;;
43694;SDS011;29300;43.560;1.294;2022-11-20T07:15:40;2.67;;;1.55;;
43694;SDS011;29300;43.560;1.294;2022-11-20T07:18:06;2.13;;;1.67;;
43694;SDS011;29300;43.560;1.294;2022-11-20T07:20:32;3.97;;;2.00;;
43694;SDS011;29300;43.560;1.294;2022-11-20T07:22:58;2.92;;;2.30;;
43694;SDS011;29300;43.560;1.294;2022-11-20T07:25:24;5.97;;;2.60;;
43694;SDS011;29300;43.560;1.294;2022-11-20T07:27:50;4.45;;;2.38;;
43694;SDS011;29300;43.560;1.294;2022-11-20T07:30:16;4.32;;;2.60;;
43694;SDS011;29300;43.560;1.294;2022-11-20T07:32:42;4.63;;;2.97;;
43694;SDS011;29300;43.560;1.294;2022-11-20T07:35:07;4.22;;;3.42;;
43694;SDS011;29300;43.560;1.294;2022-11-20T07:37:34;5.05;;;3.58;;
43694;SDS011;29300;43.560;1.294;2022-11-20T07:39:59;5.13;;;3.38;;
43694;SDS011;29300;43.560;1.294;2022-11-20T07:42:25;4.70;;;3.20;;
43694;SDS011;29300;43.560;1.294;2022-11-20T07:44:51;4.10;;;2.97;;
43694;SDS011;29300;43.560;1.294;2022-11-20T07:47:16;6.07;;;3.92;;
43694;SDS011;29300;43.560;1.294;2022-11-20T07:49:42;4.72;;;3.35;;
43694;SDS011;29300;43.560;1.294;2022-11-20T07:52:08;6.28;;;4.00;;
43694;SDS011;29300;43.560;1.294;2022-11-20T07:54:33;5.78;;;4.10;;
43694;SDS011;29300;43.560;1.294;2022-11-20T07:56:59;7.35;;;4.40;;
43694;SDS011;29300;43.560;1.294;2022-11-20T07:59:25;5.57;;;4.15;;
43694;SDS011;29300;43.560;1.294;2022-11-20T08:01:50;5.93;;;3.60;;
43694;SDS011;29300;43.560;1.294;2022-11-20T08:04:16;5.43;;;4.03;;
43694;SDS011;29300;43.560;1.294;2022-11-20T08:06:42;4.43;;;3.65;;
43694;SDS011;29300;43.560;1.294;2022-11-20T08:09:07;5.80;;;3.30;;
43694;SDS011;29300;43.560;1.294;2022-11-20T08:11:33;4.72;;;3.38;;
43694;SDS011;29300;43.560;1.294;2022-11-20T08:14:17;4.50;;;3.22;;
43694;SDS011;29300;43.560;1.294;2022-11-20T08:16:43;3.97;;;3.30;;
43694;SDS011;29300;43.560;1.294;2022-11-20T08:19:17;4.00;;;2.70;;
43694;SDS011;29300;43.560;1.294;2022-11-20T08:21:43;3.65;;;2.72;;
43694;SDS011;29300;43.560;1.294;2022-11-20T08:24:10;4.28;;;2.50;;
43694;SDS011;29300;43.560;1.294;2022-11-20T08:26:36;2.92;;;2.47;;
43694;SDS011;29300;43.560;1.294;2022-11-20T08:29:03;3.47;;;2.58;;
43694;SDS011;29300;43.560;1.294;2022-11-20T08:31:29;2.20;;;2.00;;
43694;SDS011;29300;43.560;1.294;2022-11-20T08:33:55;3.60;;;2.47;;
43694;SDS011;29300;43.560;1.294;2022-11-20T08:36:22;4.28;;;2.00;;
43694;SDS011;29300;43.560;1.294;2022-11-20T08:38:49;3.28;;;2.53;;
43694;SDS011;29300;43.560;1.294;2022-11-20T08:41:19;2.78;;;2.17;;
43694;SDS011;29300;43.560;1.294;2022-11-20T08:43:56;2.53;;;2.17;;
43694;SDS011;29300;43.560;1.294;2022-11-20T08:46:26;2.95;;;2.13;;
43694;SDS011;29300;43.560;1.294;2022-11-20T08:48:53;2.67;;;2.05;;
43694;SDS011;29300;43.560;1.294;2022-11-20T08:51:19;3.60;;;2.22;;
43694;SDS011;29300;43.560;1.294;2022-11-20T08:53:45;3.28;;;2.63;;
43694;SDS011;29300;43.560;1.294;2022-11-20T08:56:13;2.47;;;2.13;;
43694;SDS011;29300;43.560;1.294;2022-11-20T08:58:39;3.03;;;2.55;;
43694;SDS011;29300;43.560;1.294;2022-11-20T09:01:05;2.75;;;2.28;;
43694;SDS011;29300;43.560;1.294;2022-11-20T09:03:31;3.28;;;2.30;;
43694;SDS011;29300;43.560;1.294;2022-11-20T09:05:57;2.38;;;2.08;;
43694;SDS011;29300;43.560;1.294;2022-11-20T09:08:24;3.15;;;2.25;;
43694;SDS011;29300;43.560;1.294;2022-11-20T09:10:53;2.90;;;2.25;;
43694;SDS011;29300;43.560;1.294;2022-11-20T09:13:20;4.25;;;2.30;;
43694;SDS011;29300;43.560;1.294;2022-11-20T09:15:47;2.85;;;2.22;;
43694;SDS011;29300;43.560;1.294;2022-11-20T09:18:17;3.03;;;2.30;;
43694;SDS011;29300;43.560;1.294;2022-11-20T09:20:43;3.58;;;2.45;;
43694;SDS011;29300;43.560;1.294;2022-11-20T09:23:09;2.47;;;2.00;;
43694;SDS011;29300;43.560;1.294;2022-11-20T09:25:34;3.33;;;2.10;;
43694;SDS011;29300;43.560;1.294;2022-11-20T09:28:00;2.80;;;1.98;;
43694;SDS011;29300;43.560;1.294;2022-11-20T09:30:26;2.78;;;2.10;;
43694;SDS011;29300;43.560;1.294;2022-11-20T09:32:52;3.67;;;2.40;;
43694;SDS011;29300;43.560;1.294;2022-11-20T09:35:19;2.83;;;2.10;;
43694;SDS011;29300;43.560;1.294;2022-11-20T09:37:45;2.25;;;2.00;;
43694;SDS011;29300;43.560;1.294;2022-11-20T09:40:19;3.10;;;2.45;;
43694;SDS011;29300;43.560;1.294;2022-11-20T09:43:03;4.72;;;2.40;;
43694;SDS011;29300;43.560;1.294;2022-11-20T09:46:17;3.13;;;2.13;;
43694;SDS011;29300;43.560;1.294;2022-11-20T09:53:58;2.67;;;2.25;;
43694;SDS011;29300;43.560;1.294;2022-11-20T09:57:03;3.10;;;1.92;;
43694;SDS011;29300;43.560;1.294;2022-11-20T09:59:36;4.43;;;2.20;;
43694;SDS011;29300;43.560;1.294;2022-11-20T10:02:27;2.85;;;2.13;;
43694;SDS011;29300;43.560;1.294;2022-11-20T10:08:21;2.47;;;2.05;;
43694;SDS011;29300;43.560;1.294;2022-11-20T10:21:30;2.92;;;2.20;;
43694;SDS011;29300;43.560;1.294;2022-11-20T10:24:34;3.22;;;2.55;;
43694;SDS011;29300;43.560;1.294;2022-11-20T10:30:13;3.47;;;2.05;;
43694;SDS011;29300;43.560;1.294;2022-11-20T10:32:42;3.17;;;2.38;;
43694;SDS011;29300;43.560;1.294;2022-11-20T10:37:48;2.55;;;2.30;;
43694;SDS011;29300;43.560;1.294;2022-11-20T10:43:16;1.92;;;1.73;;
43694;SDS011;29300;43.560;1.294;2022-11-20T10:45:58;2.10;;;1.90;;
43694;SDS011;29300;43.560;1.294;2022-11-20T10:48:28;3.42;;;2.30;;
43694;SDS011;29300;43.560;1.294;2022-11-20T10:59:16;4.20;;;2.58;;
43694;SDS011;29300;43.560;1.294;2022-11-20T11:01:53;3.13;;;2.33;;
43694;SDS011;29300;43.560;1.294;2022-11-20T11:06:54;3.80;;;2.47;;
43694;SDS011;29300;43.560;1.294;2022-11-20T11:09:46;2.90;;;2.25;;
43694;SDS011;29300;43.560;1.294;2022-11-20T11:12:14;4.40;;;2.97;;
43694;SDS011;29300;43.560;1.294;2022-11-20T11:14:47;8.32;;;3.22;;
43694;SDS011;29300;43.560;1.294;2022-11-20T11:17:30;4.68;;;2.80;;
43694;SDS011;29300;43.560;1.294;2022-11-20T11:20:16;3.75;;;2.42;;
43694;SDS011;29300;43.560;1.294;2022-11-20T11:22:50;3.47;;;2.80;;
43694;SDS011;29300;43.560;1.294;2022-11-20T11:27:46;3.90;;;2.55;;
43694;SDS011;29300;43.560;1.294;2022-11-20T11:30:14;3.78;;;2.70;;
43694;SDS011;29300;43.560;1.294;2022-11-20T11:32:42;3.55;;;2.30;;
43694;SDS011;29300;43.560;1.294;2022-11-20T11:35:24;4.35;;;2.47;;
43694;SDS011;29300;43.560;1.294;2022-11-20T11:37:52;3.40;;;2.03;;
43694;SDS011;29300;43.560;1.294;2022-11-20T11:40:30;3.97;;;2.10;;
43694;SDS011;29300;43.560;1.294;2022-11-20T11:43:05;3.78;;;2.25;;
43694;SDS011;29300;43.560;1.294;2022-11-20T11:46:01;2.75;;;1.80;;
43694;SDS011;29300;43.560;1.294;2022-11-20T11:48:27;2.83;;;1.95;;
43694;SDS011;29300;43.560;1.294;2022-11-20T11:50:52;2.75;;;2.05;;
43694;SDS011;29300;43.560;1.294;2022-11-20T11:53:21;2.30;;;1.70;;
43694;SDS011;29300;43.560;1.294;2022-11-20T11:55:56;2.10;;;1.95;;
43694;SDS011;29300;43.560;1.294;2022-11-20T11:58:47;4.07;;;2.20;;
43694;SDS011;29300;43.560;1.294;2022-11-20T12:01:33;4.32;;;2.63;;
43694;SDS011;29300;43.560;1.294;2022-11-20T12:04:11;4.15;;;2.63;;
43694;SDS011;29300;43.560;1.294;2022-11-20T12:06:43;3.22;;;2.53;;
43694;SDS011;29300;43.560;1.294;2022-11-20T12:09:12;2.70;;;1.90;;
43694;SDS011;29300;43.560;1.294;2022-11-20T12:11:49;3.03;;;2.40;;
43694;SDS011;29300;43.560;1.294;2022-11-20T12:17:04;3.20;;;1.77;;
43694;SDS011;29300;43.560;1.294;2022-11-20T12:19:31;2.83;;;2.22;;
43694;SDS011;29300;43.560;1.294;2022-11-20T12:22:03;2.97;;;1.75;;
43694;SDS011;29300;43.560;1.294;2022-11-20T12:27:50;4.05;;;2.58;;
43694;SDS011;29300;43.560;1.294;2022-11-20T12:36:07;3.63;;;2.47;;
43694;SDS011;29300;43.560;1.294;2022-11-20T12:45:06;3.88;;;1.80;;
43694;SDS011;29300;43.560;1.294;2022-11-20T12:47:48;3.45;;;1.92;;
43694;SDS011;29300;43.560;1.294;2022-11-20T12:53:02;3.55;;;2.15;;
43694;SDS011;29300;43.560;1.294;2022-11-20T13:07:11;8.23;;;7.30;;
43694;SDS011;29300;43.560;1.294;2022-11-20T13:09:40;9.40;;;7.50;;
43694;SDS011;29300;43.560;1.294;2022-11-20T13:12:16;7.03;;;6.30;;
43694;SDS011;29300;43.560;1.294;2022-11-20T13:20:06;5.22;;;4.63;;
43694;SDS011;29300;43.560;1.294;2022-11-20T13:22:43;3.47;;;3.20;;
43694;SDS011;29300;43.560;1.294;2022-11-20T13:27:48;4.60;;;4.10;;
43694;SDS011;29300;43.560;1.294;2022-11-20T13:32:52;5.38;;;3.85;;
43694;SDS011;29300;43.560;1.294;2022-11-20T13:36:04;5.43;;;4.68;;
43694;SDS011;29300;43.560;1.294;2022-11-20T13:38:19;5.07;;;4.28;;
43694;SDS011;29300;43.560;1.294;2022-11-20T13:43:40;6.22;;;3.95;;
43694;SDS011;29300;43.560;1.294;2022-11-20T13:46:08;5.88;;;4.18;;
43694;SDS011;29300;43.560;1.294;2022-11-20T13:56:39;5.00;;;3.05;;
43694;SDS011;29300;43.560;1.294;2022-11-20T14:01:56;6.20;;;2.58;;
43694;SDS011;29300;43.560;1.294;2022-11-20T14:04:33;4.57;;;2.67;;
43694;SDS011;29300;43.560;1.294;2022-11-20T14:07:01;7.22;;;4.75;;
43694;SDS011;29300;43.560;1.294;2022-11-20T14:09:31;8.32;;;3.53;;
43694;SDS011;29300;43.560;1.294;2022-11-20T14:11:59;4.53;;;2.53;;
43694;SDS011;29300;43.560;1.294;2022-11-20T14:14:25;5.47;;;3.00;;
43694;SDS011;29300;43.560;1.294;2022-11-20T14:16:53;6.85;;;2.55;;
43694;SDS011;29300;43.560;1.294;2022-11-20T14:19:49;4.80;;;2.60;;
43694;SDS011;29300;43.560;1.294;2022-11-20T14:22:23;10.35;;;2.90;;
43694;SDS011;29300;43.560;1.294;2022-11-20T14:27:37;9.70;;;2.75;;
43694;SDS011;29300;43.560;1.294;2022-11-20T14:30:04;9.48;;;2.92;;
43694;SDS011;29300;43.560;1.294;2022-11-20T14:32:31;8.02;;;2.47;;
43694;SDS011;29300;43.560;1.294;2022-11-20T14:35:06;11.68;;;2.97;;
43694;SDS011;29300;43.560;1.294;2022-11-20T14:37:36;11.13;;;3.22;;
43694;SDS011;29300;43.560;1.294;2022-11-20T14:40:05;8.90;;;2.75;;
43694;SDS011;29300;43.560;1.294;2022-11-20T14:42:46;14.85;;;2.60;;
43694;SDS011;29300;43.560;1.294;2022-11-20T14:45:12;6.40;;;2.70;;
43694;SDS011;29300;43.560;1.294;2022-11-20T14:47:38;15.55;;;3.03;;
43694;SDS011;29300;43.560;1.294;2022-11-20T14:50:07;8.10;;;2.40;;
43694;SDS011;29300;43.560;1.294;2022-11-20T14:52:49;12.88;;;3.38;;
43694;SDS011;29300;43.560;1.294;2022-11-20T14:55:24;11.63;;;2.80;;
43694;SDS011;29300;43.560;1.294;2022-11-20T14:57:56;15.48;;;3.15;;
43694;SDS011;29300;43.560;1.294;2022-11-20T15:00:24;18.38;;;4.03;;
43694;SDS011;29300;43.560;1.294;2022-11-20T15:02:50;17.35;;;3.10;;
43694;SDS011;29300;43.560;1.294;2022-11-20T15:05:21;17.75;;;3.15;;
43694;SDS011;29300;43.560;1.294;2022-11-20T15:08:03;13.50;;;2.63;;
43694;SDS011;29300;43.560;1.294;2022-11-20T15:10:31;12.43;;;3.15;;
43694;SDS011;29300;43.560;1.294;2022-11-20T15:13:13;10.73;;;2.83;;
43694;SDS011;29300;43.560;1.294;2022-11-20T15:15:45;10.73;;;2.95;;
43694;SDS011;29300;43.560;1.294;2022-11-20T15:18:17;8.18;;;2.72;;
43694;SDS011;29300;43.560;1.294;2022-11-20T15:20:45;8.25;;;2.20;;
43694;SDS011;29300;43.560;1.294;2022-11-20T15:23:12;14.35;;;3.22;;
43694;SDS011;29300;43.560;1.294;2022-11-20T15:25:45;12.30;;;3.60;;
43694;SDS011;29300;43.560;1.294;2022-11-20T15:28:20;10.10;;;2.85;;
43694;SDS011;29300;43.560;1.294;2022-11-20T15:30:52;8.85;;;2.30;;
43694;SDS011;29300;43.560;1.294;2022-11-20T15:33:18;17.65;;;8.15;;
43694;SDS011;29300;43.560;1.294;2022-11-20T15:35:43;17.95;;;9.60;;
43694;SDS011;29300;43.560;1.294;2022-11-20T15:38:09;13.00;;;8.55;;
43694;SDS011;29300;43.560;1.294;2022-11-20T15:40:35;18.90;;;7.10;;
43694;SDS011;29300;43.560;1.294;2022-11-20T15:43:01;15.93;;;6.90;;
43694;SDS011;29300;43.560;1.294;2022-11-20T15:45:43;13.82;;;5.70;;
43694;SDS011;29300;43.560;1.294;2022-11-20T15:48:19;17.38;;;5.60;;
43694;SDS011;29300;43.560;1.294;2022-11-20T15:53:13;26.95;;;9.77;;
43694;SDS011;29300;43.560;1.294;2022-11-20T15:55:39;30.90;;;14.18;;
43694;SDS011;29300;43.560;1.294;2022-11-20T15:58:04;25.10;;;12.52;;
43694;SDS011;29300;43.560;1.294;2022-11-20T16:00:30;27.10;;;11.88;;
43694;SDS011;29300;43.560;1.294;2022-11-20T16:02:56;28.63;;;12.75;;
43694;SDS011;29300;43.560;1.294;2022-11-20T16:05:21;31.98;;;11.95;;
43694;SDS011;29300;43.560;1.294;2022-11-20T16:07:48;34.58;;;13.10;;
43694;SDS011;29300;43.560;1.294;2022-11-20T16:10:15;41.17;;;16.85;;
43694;SDS011;29300;43.560;1.294;2022-11-20T16:12:41;40.40;;;15.65;;
43694;SDS011;29300;43.560;1.294;2022-11-20T16:15:25;36.03;;;12.75;;
43694;SDS011;29300;43.560;1.294;2022-11-20T16:18:10;33.08;;;12.52;;
43694;SDS011;29300;43.560;1.294;2022-11-20T16:20:38;30.65;;;10.95;;
43694;SDS011;29300;43.560;1.294;2022-11-20T16:23:04;23.42;;;10.30;;
43694;SDS011;29300;43.560;1.294;2022-11-20T16:25:31;20.30;;;9.02;;
43694;SDS011;29300;43.560;1.294;2022-11-20T16:27:57;19.42;;;8.30;;
43694;SDS011;29300;43.560;1.294;2022-11-20T16:30:23;16.02;;;7.00;;
43694;SDS011;29300;43.560;1.294;2022-11-20T16:32:48;15.52;;;6.55;;
43694;SDS011;29300;43.560;1.294;2022-11-20T16:35:15;13.60;;;5.30;;
43694;SDS011;29300;43.560;1.294;2022-11-20T16:37:41;12.93;;;5.47;;
43694;SDS011;29300;43.560;1.294;2022-11-20T16:40:08;9.38;;;4.40;;
43694;SDS011;29300;43.560;1.294;2022-11-20T16:42:35;10.73;;;4.40;;
43694;SDS011;29300;43.560;1.294;2022-11-20T16:45:02;7.90;;;3.65;;
43694;SDS011;29300;43.560;1.294;2022-11-20T16:47:28;9.00;;;3.28;;
43694;SDS011;29300;43.560;1.294;2022-11-20T16:49:58;21.73;;;9.90;;
43694;SDS011;29300;43.560;1.294;2022-11-20T16:52:24;35.67;;;17.20;;
43694;SDS011;29300;43.560;1.294;2022-11-20T16:54:50;40.90;;;17.85;;